createdAt,value
2022-11-10T00:01:36.860Z,3.03
2022-11-10T00:04:21.783Z,2.75
2022-11-10T00:07:06.666Z,2.95
2022-11-10T00:09:54.966Z,2.63
2022-11-10T00:12:39.997Z,2.53
2022-11-10T00:15:43.649Z,3.05
2022-11-10T00:18:28.834Z,2.80
2022-11-10T00:21:15.636Z,2.50
2022-11-10T00:24:00.777Z,2.60
2022-11-10T00:26:46.561Z,2.28
2022-11-10T00:29:31.504Z,2.63
2022-11-10T00:32:16.463Z,2.38
2022-11-10T00:35:01.581Z,2.92
2022-11-10T00:37:49.422Z,2.88
2022-11-10T00:40:34.481Z,2.88
2022-11-10T00:43:22.512Z,2.75
2022-11-10T00:46:10.282Z,2.58
2022-11-10T00:48:55.177Z,2.28
2022-11-10T00:51:40.012Z,2.63
2022-11-10T00:54:25.740Z,2.70
2022-11-10T00:57:10.636Z,3.05
2022-11-10T00:59:55.611Z,2.85
2022-11-10T01:02:40.519Z,2.92
2022-11-10T01:05:25.382Z,2.60
2022-11-10T01:08:10.709Z,2.42
2022-11-10T01:11:04.786Z,2.58
2022-11-10T01:13:52.023Z,2.53
2022-11-10T01:16:37.203Z,2.72
2022-11-10T01:19:22.267Z,2.63
2022-11-10T01:22:07.938Z,3.10
2022-11-10T01:24:53.083Z,2.95
2022-11-10T01:27:38.024Z,3.08
2022-11-10T01:30:22.866Z,2.65
2022-11-10T01:33:07.867Z,2.47
2022-11-10T01:35:52.809Z,2.78
2022-11-10T01:38:40.182Z,2.90
2022-11-10T01:41:25.203Z,3.10
2022-11-10T01:44:25.296Z,2.38
2022-11-10T01:47:10.341Z,2.72
2022-11-10T01:49:55.359Z,2.72
2022-11-10T01:52:43.569Z,2.58
2022-11-10T01:55:28.866Z,2.63
2022-11-10T01:58:16.251Z,2.50
2022-11-10T02:01:01.208Z,2.83
2022-11-10T02:03:50.236Z,2.13
2022-11-10T02:06:40.832Z,2.80
2022-11-10T02:09:26.011Z,2.70
2022-11-10T02:12:11.890Z,2.55
2022-11-10T02:14:56.717Z,2.60
2022-11-10T02:17:42.182Z,2.70
2022-11-10T02:20:27.145Z,2.67
2022-11-10T02:23:35.437Z,2.75
2022-11-10T02:26:24.302Z,2.53
2022-11-10T02:29:09.658Z,2.72
2022-11-10T02:31:54.832Z,3.10
2022-11-10T02:34:40.034Z,3.30
2022-11-10T02:37:25.298Z,2.88
2022-11-10T02:40:10.847Z,3.15
2022-11-10T02:42:56.086Z,2.88
2022-11-10T02:45:47.112Z,2.90
2022-11-10T02:48:32.038Z,2.67
2022-11-10T02:51:17.470Z,2.63
2022-11-10T02:54:02.443Z,2.72
2022-11-10T02:56:47.663Z,3.13
2022-11-10T02:59:32.589Z,3.15
2022-11-10T03:02:17.714Z,3.38
2022-11-10T03:05:02.867Z,2.30
2022-11-10T03:07:57.052Z,3.00
2022-11-10T03:10:42.313Z,3.30
2022-11-10T03:13:40.210Z,3.35
2022-11-10T03:16:32.588Z,2.58
2022-11-10T03:19:17.570Z,3.50
2022-11-10T03:22:02.430Z,2.30
2022-11-10T03:24:47.339Z,2.30
2022-11-10T03:27:32.676Z,3.42
2022-11-10T03:30:17.567Z,2.35
2022-11-10T03:33:03.852Z,2.47
2022-11-10T03:35:48.800Z,2.85
2022-11-10T03:38:33.580Z,2.85
2022-11-10T03:41:20.082Z,3.22
2022-11-10T03:44:05.655Z,2.90
2022-11-10T03:46:51.888Z,2.78
2022-11-10T03:49:36.935Z,2.85
2022-11-10T03:52:21.847Z,2.97
2022-11-10T03:55:07.564Z,3.15
2022-11-10T03:57:52.383Z,3.28
2022-11-10T04:00:37.365Z,3.55
2022-11-10T04:03:23.360Z,2.95
2022-11-10T04:06:29.210Z,3.08
2022-11-10T04:09:14.432Z,3.10
2022-11-10T04:12:22.112Z,2.90
2022-11-10T04:15:30.736Z,3.22
2022-11-10T04:18:21.926Z,3.20
2022-11-10T04:21:06.919Z,2.50
2022-11-10T04:23:51.811Z,3.60
2022-11-10T04:26:38.683Z,3.35
2022-11-10T04:29:23.578Z,3.20
2022-11-10T04:32:08.538Z,3.15
2022-11-10T04:34:53.458Z,2.78
2022-11-10T04:37:38.273Z,3.28
2022-11-10T04:40:23.216Z,2.80
2022-11-10T04:43:08.510Z,2.83
2022-11-10T04:45:54.520Z,3.20
2022-11-10T04:48:39.385Z,4.03
2022-11-10T04:51:30.092Z,3.67
2022-11-10T04:54:15.229Z,3.60
2022-11-10T04:57:00.138Z,3.75
2022-11-10T04:59:45.076Z,3.47
2022-11-10T05:02:30.348Z,3.42
2022-11-10T05:05:15.770Z,3.33
2022-11-10T05:08:01.064Z,3.35
2022-11-10T05:10:45.923Z,3.40
2022-11-10T05:13:31.362Z,2.90
2022-11-10T05:16:16.780Z,3.40
2022-11-10T05:19:01.840Z,3.08
2022-11-10T05:21:46.749Z,3.40
2022-11-10T05:24:31.660Z,2.97
2022-11-10T05:27:16.545Z,3.58
2022-11-10T05:30:01.421Z,3.30
2022-11-10T05:32:46.328Z,3.03
2022-11-10T05:35:31.399Z,3.17
2022-11-10T05:38:17.202Z,3.10
2022-11-10T05:41:02.144Z,3.30
2022-11-10T05:43:47.339Z,2.95
2022-11-10T05:46:32.479Z,3.42
2022-11-10T05:49:17.353Z,3.88
2022-11-10T05:52:02.275Z,3.40
2022-11-10T05:54:47.186Z,2.50
2022-11-10T05:57:33.479Z,3.80
2022-11-10T06:00:21.804Z,4.18
2022-11-10T06:03:13.853Z,3.17
2022-11-10T06:05:58.727Z,3.15
2022-11-10T06:08:43.606Z,3.85
2022-11-10T06:11:28.479Z,2.92
2022-11-10T06:14:13.242Z,3.17
2022-11-10T06:16:58.259Z,3.95
2022-11-10T06:19:43.089Z,3.30
2022-11-10T06:22:28.334Z,3.00
2022-11-10T06:25:13.260Z,3.50
2022-11-10T06:27:59.082Z,3.10
2022-11-10T06:30:44.133Z,3.25
2022-11-10T06:33:29.185Z,3.28
2022-11-10T06:36:14.293Z,2.55
2022-11-10T06:38:59.436Z,3.72
2022-11-10T06:41:44.342Z,3.30
2022-11-10T06:44:29.268Z,2.90
2022-11-10T06:47:15.829Z,3.13
2022-11-10T06:50:00.886Z,3.60
2022-11-10T06:52:53.674Z,3.40
2022-11-10T06:55:39.200Z,3.47
2022-11-10T06:58:24.191Z,3.17
2022-11-10T07:01:09.107Z,3.22
2022-11-10T07:04:18.299Z,3.20
2022-11-10T07:06:59.145Z,3.17
2022-11-10T07:09:43.901Z,3.08
2022-11-10T07:12:28.847Z,3.28
2022-11-10T07:15:13.741Z,3.83
2022-11-10T07:17:58.906Z,2.90
2022-11-10T07:20:43.742Z,3.70
2022-11-10T07:23:28.805Z,2.92
2022-11-10T07:26:13.898Z,3.00
2022-11-10T07:28:59.130Z,4.22
2022-11-10T07:31:44.180Z,3.58
2022-11-10T07:34:29.741Z,3.15
2022-11-10T07:37:14.942Z,3.13
2022-11-10T07:39:59.817Z,2.50
2022-11-10T07:42:44.791Z,2.80
2022-11-10T07:45:31.309Z,3.10
2022-11-10T07:48:17.106Z,3.15
2022-11-10T07:51:02.008Z,3.15
2022-11-10T07:53:46.765Z,3.13
2022-11-10T07:56:32.019Z,2.55
2022-11-10T07:59:17.144Z,2.67
2022-11-10T08:02:02.067Z,3.63
2022-11-10T08:04:46.835Z,3.58
2022-11-10T08:07:31.777Z,3.25
2022-11-10T08:10:16.814Z,4.28
2022-11-10T08:13:04.537Z,3.40
2022-11-10T08:15:49.834Z,3.35
2022-11-10T08:18:35.835Z,3.15
2022-11-10T08:21:20.666Z,3.33
2022-11-10T08:24:05.883Z,2.85
2022-11-10T08:26:50.958Z,2.85
2022-11-10T08:29:36.114Z,3.20
2022-11-10T08:32:21.275Z,3.20
2022-11-10T08:35:06.833Z,2.83
2022-11-10T08:37:51.905Z,3.47
2022-11-10T08:40:37.820Z,3.20
2022-11-10T08:43:23.910Z,3.50
2022-11-10T08:46:09.186Z,3.08
2022-11-10T08:48:54.378Z,3.05
2022-11-10T08:51:39.552Z,2.95
2022-11-10T08:54:24.791Z,3.03
2022-11-10T08:57:09.661Z,3.50
2022-11-10T08:59:54.526Z,2.65
2022-11-10T09:02:39.479Z,3.53
2022-11-10T09:05:24.264Z,2.85
2022-11-10T09:08:09.638Z,2.60
2022-11-10T09:10:54.726Z,2.88
2022-11-10T09:13:39.797Z,3.10
2022-11-10T09:16:24.729Z,3.17
2022-11-10T09:19:09.704Z,3.13
2022-11-10T09:21:54.619Z,3.05
2022-11-10T09:24:39.402Z,2.70
2022-11-10T09:27:24.387Z,2.80
2022-11-10T09:30:14.546Z,3.17
2022-11-10T09:33:02.692Z,3.25
2022-11-10T09:35:47.871Z,3.78
2022-11-10T09:38:33.865Z,2.47
2022-11-10T09:41:18.759Z,3.42
2022-11-10T09:44:18.273Z,3.13
2022-11-10T09:47:12.452Z,3.00
2022-11-10T09:50:01.969Z,3.70
2022-11-10T09:52:49.172Z,3.22
2022-11-10T09:55:49.863Z,2.70
2022-11-10T09:58:43.329Z,3.05
2022-11-10T10:01:49.380Z,3.03
2022-11-10T10:05:07.432Z,3.28
2022-11-10T10:08:02.256Z,3.35
2022-11-10T10:10:51.810Z,2.92
2022-11-10T10:13:57.196Z,3.55
2022-11-10T10:16:54.396Z,3.30
2022-11-10T10:20:09.844Z,3.10
2022-11-10T10:23:05.709Z,3.00
2022-11-10T10:25:53.345Z,2.90
2022-11-10T10:28:40.892Z,3.22
2022-11-10T10:31:32.473Z,2.83
2022-11-10T10:34:27.252Z,2.55
2022-11-10T10:37:24.734Z,2.40
2022-11-10T10:40:19.070Z,3.50
2022-11-10T10:43:04.131Z,2.90
2022-11-10T10:46:07.803Z,2.97
2022-11-10T10:49:27.858Z,3.25
2022-11-10T10:52:16.794Z,2.40
2022-11-10T10:55:07.958Z,3.03
2022-11-10T10:58:00.040Z,2.67
2022-11-10T11:00:47.988Z,2.60
2022-11-10T11:03:47.832Z,2.50
2022-11-10T11:06:34.688Z,2.38
2022-11-10T11:09:27.647Z,1.85
2022-11-10T11:12:25.908Z,2.67
2022-11-10T11:15:20.922Z,2.30
2022-11-10T11:18:18.517Z,2.20
2022-11-10T11:21:09.586Z,2.22
2022-11-10T11:23:54.306Z,2.40
2022-11-10T11:27:05.087Z,1.95
2022-11-10T11:30:05.549Z,2.05
2022-11-10T11:33:00.898Z,2.28
2022-11-10T11:35:51.596Z,2.28
2022-11-10T11:38:49.294Z,2.22
2022-11-10T11:41:57.775Z,1.80
2022-11-10T11:45:07.095Z,2.05
2022-11-10T11:48:16.651Z,2.05
2022-11-10T11:51:18.124Z,2.17
2022-11-10T11:54:26.523Z,1.80
2022-11-10T11:57:17.648Z,1.63
2022-11-10T12:00:13.376Z,2.15
2022-11-10T12:03:29.782Z,2.42
2022-11-10T12:06:24.247Z,2.20
2022-11-10T12:09:41.505Z,1.85
2022-11-10T12:12:48.348Z,2.13
2022-11-10T12:15:46.444Z,2.50
2022-11-10T12:18:40.060Z,1.90
2022-11-10T12:21:46.184Z,2.17
2022-11-10T12:24:44.273Z,2.47
2022-11-10T12:27:40.753Z,1.60
2022-11-10T12:30:27.062Z,1.88
2022-11-10T12:33:21.211Z,2.40
2022-11-10T12:36:12.343Z,2.20
2022-11-10T12:39:04.577Z,1.42
2022-11-10T12:41:55.863Z,2.38
2022-11-10T12:45:05.664Z,2.33
2022-11-10T12:47:52.762Z,2.80
2022-11-10T12:50:44.032Z,1.90
2022-11-10T12:53:38.502Z,2.30
2022-11-10T12:56:39.378Z,1.77
2022-11-10T12:59:26.702Z,1.73
2022-11-10T13:02:31.683Z,1.77
2022-11-10T13:05:36.958Z,1.73
2022-11-10T13:08:46.888Z,1.95
2022-11-10T13:11:36.772Z,2.25
2022-11-10T13:14:28.754Z,1.83
2022-11-10T13:17:29.217Z,1.58
2022-11-10T13:20:39.239Z,1.90
2022-11-10T13:23:31.791Z,2.00
2022-11-10T13:27:33.586Z,1.90
2022-11-10T13:30:46.368Z,2.17
2022-11-10T13:33:38.037Z,1.70
2022-11-10T13:36:43.684Z,1.50
2022-11-10T13:39:33.422Z,1.40
2022-11-10T13:42:23.206Z,1.80
2022-11-10T13:45:26.560Z,2.40
2022-11-10T13:48:11.393Z,1.50
2022-11-10T13:51:32.753Z,1.70
2022-11-10T13:54:44.356Z,2.05
2022-11-10T13:57:35.641Z,1.73
2022-11-10T14:00:20.752Z,2.05
2022-11-10T14:03:07.563Z,1.65
2022-11-10T14:06:03.026Z,1.63
2022-11-10T14:09:13.695Z,1.90
2022-11-10T14:12:06.070Z,1.73
2022-11-10T14:15:06.751Z,1.88
2022-11-10T14:17:54.656Z,1.17
2022-11-10T14:20:45.341Z,1.35
2022-11-10T14:23:42.237Z,1.52
2022-11-10T14:26:35.795Z,1.70
2022-11-10T14:32:32.259Z,1.67
2022-11-10T14:35:20.965Z,1.40
2022-11-10T14:38:17.926Z,1.30
2022-11-10T14:41:06.612Z,1.40
2022-11-10T14:44:06.841Z,1.40
2022-11-10T14:46:52.975Z,1.60
2022-11-10T14:49:38.166Z,1.75
2022-11-10T14:52:23.139Z,1.38
2022-11-10T14:55:13.259Z,1.40
2022-11-10T14:58:09.997Z,1.35
2022-11-10T15:00:54.974Z,1.80
2022-11-10T15:03:42.555Z,1.10
2022-11-10T15:06:29.058Z,1.27
2022-11-10T15:09:16.910Z,1.70
2022-11-10T15:12:08.237Z,1.60
2022-11-10T15:14:59.207Z,2.15
2022-11-10T15:17:50.426Z,1.60
2022-11-10T15:20:38.534Z,1.63
2022-11-10T15:23:33.432Z,1.80
2022-11-10T15:26:24.893Z,2.05
2022-11-10T15:29:19.949Z,2.00
2022-11-10T15:32:15.012Z,2.78
2022-11-10T15:35:18.411Z,3.08
2022-11-10T15:38:05.341Z,2.47
2022-11-10T15:40:52.443Z,2.25
2022-11-10T15:43:37.565Z,3.95
2022-11-10T15:46:25.526Z,3.05
2022-11-10T15:49:39.801Z,2.10
2022-11-10T15:52:24.633Z,1.98
2022-11-10T15:55:20.279Z,1.85
2022-11-10T15:58:11.814Z,1.80
2022-11-10T16:00:56.772Z,1.42
2022-11-10T16:03:42.184Z,1.65
2022-11-10T16:06:27.426Z,2.13
2022-11-10T16:09:13.392Z,2.15
2022-11-10T16:11:58.367Z,2.20
2022-11-10T16:14:48.335Z,2.60
2022-11-10T16:17:34.792Z,2.88
2022-11-10T16:20:19.726Z,2.60
2022-11-10T16:23:04.623Z,2.40
2022-11-10T16:25:51.923Z,2.13
2022-11-10T16:28:36.754Z,2.75
2022-11-10T16:31:22.486Z,2.75
2022-11-10T16:34:13.887Z,2.65
2022-11-10T16:36:59.937Z,2.88
2022-11-10T16:39:44.725Z,2.65
2022-11-10T16:42:30.073Z,2.10
2022-11-10T16:45:20.860Z,2.38
2022-11-10T16:48:07.442Z,3.03
2022-11-10T16:50:54.977Z,2.65
2022-11-10T16:53:41.405Z,2.75
2022-11-10T16:56:26.922Z,2.08
2022-11-10T16:59:13.383Z,3.13
2022-11-10T17:01:58.605Z,3.08
2022-11-10T17:04:43.665Z,2.97
2022-11-10T17:07:29.385Z,2.67
2022-11-10T17:10:19.517Z,2.28
2022-11-10T17:13:04.468Z,2.70
2022-11-10T17:15:51.764Z,2.80
2022-11-10T17:18:36.676Z,2.80
2022-11-10T17:21:22.950Z,2.75
2022-11-10T17:24:10.909Z,2.22
2022-11-10T17:26:55.874Z,2.10
2022-11-10T17:29:40.757Z,2.10
2022-11-10T17:32:50.153Z,2.30
2022-11-10T17:35:35.060Z,3.00
2022-11-10T17:38:33.295Z,2.33
2022-11-10T17:41:19.906Z,2.10
2022-11-10T17:44:05.042Z,2.40
2022-11-10T17:46:50.050Z,2.38
2022-11-10T17:49:34.849Z,2.13
2022-11-10T17:52:19.821Z,2.08
2022-11-10T17:55:05.047Z,2.25
2022-11-10T17:57:50.671Z,2.58
2022-11-10T18:00:35.974Z,2.88
2022-11-10T18:03:22.964Z,6.05
2022-11-10T18:06:08.562Z,3.22
2022-11-10T18:08:53.702Z,2.20
2022-11-10T18:11:38.728Z,2.35
2022-11-10T18:14:23.487Z,2.55
2022-11-10T18:17:08.341Z,2.50
2022-11-10T18:19:53.330Z,2.67
2022-11-10T18:22:38.584Z,7.03
2022-11-10T18:25:23.551Z,3.65
2022-11-10T18:28:13.710Z,2.50
2022-11-10T18:30:58.632Z,2.28
2022-11-10T18:33:43.572Z,2.30
2022-11-10T18:36:28.551Z,2.33
2022-11-10T18:39:13.751Z,2.50
2022-11-10T18:41:58.605Z,2.65
2022-11-10T18:44:43.589Z,2.70
2022-11-10T18:47:28.558Z,4.00
2022-11-10T18:50:13.383Z,4.97
2022-11-10T18:52:58.514Z,5.53
2022-11-10T18:55:53.229Z,3.45
2022-11-10T18:58:38.152Z,2.90
2022-11-10T19:01:23.834Z,2.72
2022-11-10T19:04:09.766Z,2.35
2022-11-10T19:06:54.796Z,2.28
2022-11-10T19:09:39.862Z,4.38
2022-11-10T19:12:26.672Z,2.83
2022-11-10T19:15:12.132Z,2.70
2022-11-10T19:17:57.061Z,2.50
2022-11-10T19:20:42.427Z,2.10
2022-11-10T19:23:27.380Z,2.20
2022-11-10T19:26:18.003Z,1.92
2022-11-10T19:29:07.353Z,2.45
2022-11-10T19:31:52.288Z,4.47
2022-11-10T19:34:40.339Z,5.80
2022-11-10T19:37:26.244Z,5.32
2022-11-10T19:40:13.598Z,5.80
2022-11-10T19:42:58.814Z,3.58
2022-11-10T19:45:43.814Z,3.50
2022-11-10T19:48:30.485Z,3.25
2022-11-10T19:51:17.900Z,2.60
2022-11-10T19:54:04.817Z,2.50
2022-11-10T19:56:49.867Z,2.95
2022-11-10T19:59:34.893Z,2.40
2022-11-10T20:02:20.118Z,1.95
2022-11-10T20:05:16.075Z,2.75
2022-11-10T20:08:13.424Z,2.88
2022-11-10T20:11:01.317Z,5.03
2022-11-10T20:13:49.784Z,3.78
2022-11-10T20:16:38.251Z,4.25
2022-11-10T20:19:23.145Z,3.22
2022-11-10T20:22:08.261Z,3.10
2022-11-10T20:24:53.415Z,2.90
2022-11-10T20:27:38.225Z,3.03
2022-11-10T20:30:23.874Z,3.00
2022-11-10T20:33:08.878Z,3.75
2022-11-10T20:35:53.795Z,2.85
2022-11-10T20:38:39.764Z,2.78
2022-11-10T20:41:27.227Z,3.08
2022-11-10T20:44:12.279Z,3.08
2022-11-10T20:46:57.403Z,2.70
2022-11-10T20:49:42.359Z,2.70
2022-11-10T20:52:27.301Z,2.88
2022-11-10T20:55:18.061Z,2.63
2022-11-10T20:58:03.446Z,2.75
2022-11-10T21:00:48.425Z,3.05
2022-11-10T21:03:33.904Z,2.95
2022-11-10T21:06:19.106Z,2.85
2022-11-10T21:09:06.931Z,3.20
2022-11-10T21:12:10.641Z,2.80
2022-11-10T21:14:56.028Z,2.70
2022-11-10T21:17:44.118Z,2.85
2022-11-10T21:20:29.449Z,3.63
2022-11-10T21:23:14.541Z,3.25
2022-11-10T21:26:00.990Z,3.05
2022-11-10T21:28:45.985Z,2.90
2022-11-10T21:31:31.109Z,3.78
2022-11-10T21:34:16.362Z,3.17
2022-11-10T21:37:01.606Z,3.15
2022-11-10T21:39:46.557Z,3.08
2022-11-10T21:42:35.312Z,3.10
2022-11-10T21:45:21.305Z,3.38
2022-11-10T21:48:07.015Z,4.22
2022-11-10T21:50:52.111Z,4.13
2022-11-10T21:53:39.013Z,5.13
2022-11-10T21:56:23.810Z,4.05
2022-11-10T21:59:08.651Z,4.97
2022-11-10T22:01:53.521Z,5.60
2022-11-10T22:04:38.295Z,5.00
2022-11-10T22:07:23.254Z,5.28
2022-11-10T22:10:28.936Z,4.70
2022-11-10T22:13:37.319Z,5.78
2022-11-10T22:16:45.214Z,5.40
2022-11-10T22:19:30.735Z,6.03
2022-11-10T22:22:15.475Z,7.47
2022-11-10T22:25:00.423Z,7.05
2022-11-10T22:27:45.509Z,8.27
2022-11-10T22:30:30.645Z,6.85
2022-11-10T22:33:27.968Z,8.80
2022-11-10T22:36:15.476Z,7.50
2022-11-10T22:39:03.637Z,7.70
2022-11-10T22:42:08.117Z,8.52
2022-11-10T22:47:56.630Z,7.80
2022-11-10T22:50:41.954Z,7.85
2022-11-10T22:53:27.001Z,7.88
2022-11-10T22:56:12.483Z,8.05
2022-11-10T22:59:00.086Z,8.30
2022-11-10T23:01:45.693Z,8.63
2022-11-10T23:04:30.826Z,7.95
2022-11-10T23:07:15.739Z,8.57
2022-11-10T23:10:00.662Z,9.40
2022-11-10T23:12:45.608Z,9.25
2022-11-10T23:15:34.437Z,9.45
2022-11-10T23:18:20.631Z,10.02
2022-11-10T23:21:09.181Z,8.93
2022-11-10T23:23:54.977Z,9.27
2022-11-10T23:26:40.263Z,8.90
2022-11-10T23:29:25.122Z,8.95
2022-11-10T23:32:09.976Z,8.98
2022-11-10T23:34:54.762Z,9.68
2022-11-10T23:37:39.661Z,9.45
2022-11-10T23:40:24.611Z,9.00
2022-11-10T23:43:09.400Z,7.88
2022-11-10T23:46:10.320Z,8.35
2022-11-10T23:48:55.361Z,6.03
2022-11-10T23:51:40.411Z,5.18
2022-11-10T23:54:25.154Z,4.57
2022-11-10T23:57:10.243Z,4.22
2022-11-10T23:59:55.016Z,4.03
